createdAt,value
2017-08-26T00:01:12.979Z,17.00
2017-08-26T00:03:44.684Z,16.90
2017-08-26T00:06:15.305Z,16.90
2017-08-26T00:08:46.830Z,16.90
2017-08-26T00:11:17.058Z,16.90
2017-08-26T00:13:47.290Z,16.90
2017-08-26T00:16:17.853Z,16.90
2017-08-26T00:18:48.942Z,16.80
2017-08-26T00:21:19.198Z,16.80
2017-08-26T00:23:49.783Z,16.80
2017-08-26T00:26:20.367Z,16.80
2017-08-26T00:28:52.279Z,16.70
2017-08-26T00:31:22.790Z,16.70
2017-08-26T00:33:53.367Z,16.70
2017-08-26T00:36:23.762Z,16.80
2017-08-26T00:38:54.240Z,16.70
2017-08-26T00:41:24.672Z,16.70
2017-08-26T00:43:56.829Z,16.70
2017-08-26T00:46:27.446Z,16.60
2017-08-26T00:48:58.055Z,16.60
2017-08-26T00:51:28.644Z,16.60
2017-08-26T00:53:59.441Z,16.60
2017-08-26T00:56:30.035Z,16.60
2017-08-26T00:59:00.908Z,16.60
2017-08-26T01:01:31.511Z,16.60
2017-08-26T01:04:02.844Z,16.50
2017-08-26T01:09:03.189Z,16.50
2017-08-26T01:11:34.443Z,16.50
2017-08-26T01:14:05.303Z,16.40
2017-08-26T01:16:36.342Z,16.50
2017-08-26T01:37:42.984Z,16.70
2017-08-26T01:40:13.133Z,16.60
2017-08-26T01:42:43.340Z,16.60
2017-08-26T01:45:14.004Z,16.60
2017-08-26T01:47:44.255Z,16.60
2017-08-26T01:50:14.425Z,16.70
2017-08-26T01:52:44.553Z,16.70
2017-08-26T01:55:14.816Z,16.80
2017-08-26T01:57:45.002Z,16.80
2017-08-26T02:00:15.144Z,16.80
2017-08-26T02:02:45.304Z,16.90
2017-08-26T02:05:15.494Z,16.90
2017-08-26T02:07:45.635Z,16.90
2017-08-26T02:10:15.981Z,16.90
2017-08-26T02:12:54.301Z,16.90
2017-08-26T02:15:24.429Z,16.90
2017-08-26T02:17:54.612Z,17.00
2017-08-26T02:20:24.837Z,17.00
2017-08-26T02:22:56.324Z,17.00
2017-08-26T02:25:26.550Z,17.00
2017-08-26T02:27:56.702Z,17.10
2017-08-26T02:30:26.812Z,17.10
2017-08-26T02:32:57.105Z,17.10
2017-08-26T02:35:27.241Z,17.10
2017-08-26T02:37:57.452Z,17.10
2017-08-26T02:40:27.709Z,17.00
2017-08-26T02:42:58.257Z,17.00
2017-08-26T02:45:28.497Z,17.00
2017-08-26T02:47:59.657Z,16.90
2017-08-26T02:50:30.629Z,16.90
2017-08-26T02:53:00.734Z,16.90
2017-08-26T02:55:32.308Z,16.90
2017-08-26T02:58:02.481Z,16.90
2017-08-26T03:00:32.623Z,16.80
2017-08-26T03:03:02.918Z,16.80
2017-08-26T03:05:35.526Z,16.90
2017-08-26T03:08:05.840Z,16.90
2017-08-26T03:10:35.949Z,16.90
2017-08-26T03:13:14.625Z,16.90
2017-08-26T03:15:44.761Z,16.80
2017-08-26T03:18:15.221Z,16.70
2017-08-26T03:20:45.381Z,16.70
2017-08-26T03:23:20.369Z,16.70
2017-08-26T03:25:50.479Z,16.70
2017-08-26T03:28:20.669Z,16.80
2017-08-26T03:30:50.907Z,16.80
2017-08-26T03:33:21.041Z,16.80
2017-08-26T03:35:51.181Z,16.90
2017-08-26T03:38:22.176Z,16.90
2017-08-26T03:40:52.318Z,16.90
2017-08-26T03:43:26.136Z,16.90
2017-08-26T03:45:56.246Z,16.90
2017-08-26T03:48:27.178Z,17.00
2017-08-26T03:50:57.293Z,17.00
2017-08-26T03:53:27.897Z,17.00
2017-08-26T03:55:58.052Z,16.90
2017-08-26T03:58:28.329Z,16.90
2017-08-26T04:01:07.250Z,17.00
2017-08-26T04:03:37.365Z,17.00
2017-08-26T04:06:07.473Z,17.00
2017-08-26T04:08:37.981Z,17.00
2017-08-26T04:11:08.290Z,17.00
2017-08-26T04:13:42.370Z,17.00
2017-08-26T04:16:12.619Z,17.10
2017-08-26T04:18:43.058Z,17.00
2017-08-26T04:21:13.205Z,17.00
2017-08-26T04:23:53.752Z,16.90
2017-08-26T04:26:23.960Z,16.80
2017-08-26T04:28:54.137Z,16.80
2017-08-26T04:31:28.449Z,16.80
2017-08-26T04:33:58.582Z,16.80
2017-08-26T04:36:28.710Z,16.90
2017-08-26T04:38:58.999Z,16.90
2017-08-26T04:41:29.118Z,16.80
2017-08-26T04:43:59.749Z,16.80
2017-08-26T04:46:29.864Z,16.80
2017-08-26T04:49:00.167Z,17.00
2017-08-26T04:51:30.271Z,17.00
2017-08-26T04:54:02.029Z,17.00
2017-08-26T04:56:32.129Z,17.00
2017-08-26T04:59:02.284Z,17.00
2017-08-26T05:01:32.364Z,17.00
2017-08-26T05:04:02.472Z,17.00
2017-08-26T05:06:32.585Z,17.00
2017-08-26T05:09:02.848Z,17.00
2017-08-26T05:11:33.253Z,17.10
2017-08-26T05:14:13.821Z,17.20
2017-08-26T05:16:43.913Z,17.20
2017-08-26T05:19:14.201Z,17.10
2017-08-26T05:21:44.361Z,17.10
2017-08-26T05:24:18.226Z,17.10
2017-08-26T05:26:51.200Z,17.10
2017-08-26T05:29:22.155Z,17.20
2017-08-26T05:31:52.410Z,17.20
2017-08-26T05:34:22.741Z,17.30
2017-08-26T05:36:53.126Z,17.30
2017-08-26T05:39:27.486Z,17.50
2017-08-26T05:41:57.800Z,17.50
2017-08-26T05:44:28.119Z,17.40
2017-08-26T05:46:58.325Z,17.40
2017-08-26T05:49:28.469Z,17.30
2017-08-26T05:51:58.710Z,17.30
2017-08-26T05:54:29.090Z,17.40
2017-08-26T05:56:59.309Z,17.50
2017-08-26T05:59:29.558Z,17.40
2017-08-26T06:02:00.349Z,17.40
2017-08-26T06:04:31.240Z,17.50
2017-08-26T06:07:01.358Z,17.60
2017-08-26T06:09:31.481Z,17.60
2017-08-26T06:12:11.440Z,17.60
2017-08-26T06:14:41.934Z,17.70
2017-08-26T06:17:12.246Z,17.90
2017-08-26T06:19:45.015Z,17.90
2017-08-26T06:22:15.313Z,17.80
2017-08-26T06:24:45.478Z,17.50
2017-08-26T06:27:15.948Z,17.40
2017-08-26T06:29:46.554Z,17.40
2017-08-26T06:32:16.906Z,17.50
2017-08-26T06:34:47.224Z,17.60
2017-08-26T06:37:17.530Z,17.80
2017-08-26T06:39:47.809Z,17.90
2017-08-26T06:42:18.196Z,18.10
2017-08-26T06:44:48.405Z,18.30
2017-08-26T06:47:18.729Z,18.50
2017-08-26T06:49:52.829Z,18.70
2017-08-26T06:52:23.044Z,18.70
2017-08-26T06:54:53.473Z,18.80
2017-08-26T06:57:23.813Z,18.80
2017-08-26T06:59:54.259Z,18.80
2017-08-26T07:02:25.945Z,18.90
2017-08-26T07:04:56.422Z,19.00
2017-08-26T07:07:27.587Z,19.20
2017-08-26T07:09:57.917Z,19.20
2017-08-26T07:12:33.729Z,19.10
2017-08-26T07:15:04.019Z,18.90
2017-08-26T07:17:34.231Z,19.00
2017-08-26T07:20:05.397Z,19.10
2017-08-26T07:22:35.883Z,19.10
2017-08-26T07:25:06.279Z,19.20
2017-08-26T07:27:36.507Z,19.30
2017-08-26T07:30:06.990Z,19.50
2017-08-26T07:32:39.445Z,19.40
2017-08-26T07:35:09.761Z,19.40
2017-08-26T07:37:40.884Z,19.90
2017-08-26T07:40:11.428Z,19.90
2017-08-26T07:42:59.092Z,20.00
2017-08-26T07:45:29.325Z,19.90
2017-08-26T07:48:00.457Z,19.80
2017-08-26T07:50:31.461Z,19.70
2017-08-26T07:53:02.304Z,19.80
2017-08-26T07:55:32.553Z,19.90
2017-08-26T07:58:02.813Z,20.00
2017-08-26T08:00:33.467Z,19.80
2017-08-26T08:03:03.842Z,19.90
2017-08-26T08:05:34.334Z,20.10
2017-08-26T08:08:05.085Z,20.30
2017-08-26T08:10:35.667Z,20.30
2017-08-26T08:13:06.412Z,20.40
2017-08-26T08:15:40.296Z,20.70
2017-08-26T08:18:10.705Z,20.50
2017-08-26T08:20:41.129Z,20.50
2017-08-26T08:23:12.233Z,20.60
2017-08-26T08:25:42.977Z,20.50
2017-08-26T08:28:13.293Z,20.50
2017-08-26T08:30:43.942Z,20.60
2017-08-26T08:33:14.300Z,20.90
2017-08-26T08:35:44.761Z,20.90
2017-08-26T08:38:15.597Z,21.00
2017-08-26T08:40:45.957Z,21.30
2017-08-26T08:43:16.349Z,21.70
2017-08-26T08:45:47.168Z,21.60
2017-08-26T08:48:17.663Z,22.00
2017-08-26T08:50:48.030Z,22.10
2017-08-26T08:53:18.375Z,22.40
2017-08-26T08:55:49.049Z,22.90
2017-08-26T08:58:19.360Z,23.20
2017-08-26T09:00:49.679Z,23.30
2017-08-26T09:03:21.152Z,23.60
2017-08-26T09:05:51.487Z,23.60
2017-08-26T09:08:21.697Z,24.10
2017-08-26T09:10:51.993Z,24.60
2017-08-26T09:13:22.822Z,24.70
2017-08-26T09:15:53.090Z,24.60
2017-08-26T09:18:23.314Z,24.70
2017-08-26T09:20:54.670Z,24.30
2017-08-26T09:23:25.542Z,24.30
2017-08-26T09:25:55.882Z,24.00
2017-08-26T09:28:26.230Z,24.40
2017-08-26T09:30:56.614Z,24.90
2017-08-26T09:33:27.531Z,25.60
2017-08-26T09:35:58.296Z,26.60
2017-08-26T09:38:28.841Z,26.90
2017-08-26T09:40:59.204Z,27.50
2017-08-26T09:43:29.869Z,27.90
2017-08-26T09:46:00.247Z,28.30
2017-08-26T09:48:30.796Z,28.70
2017-08-26T09:51:01.051Z,28.20
2017-08-26T09:53:31.348Z,28.10
2017-08-26T09:56:01.610Z,28.30
2017-08-26T09:58:31.849Z,28.60
2017-08-26T10:01:02.201Z,28.80
2017-08-26T10:03:36.955Z,29.00
2017-08-26T10:06:07.274Z,29.10
2017-08-26T10:08:37.565Z,29.40
2017-08-26T10:11:07.925Z,29.90
2017-08-26T10:13:39.581Z,30.10
2017-08-26T10:16:10.594Z,30.30
2017-08-26T10:18:40.812Z,30.30
2017-08-26T10:21:11.151Z,29.60
2017-08-26T10:23:41.517Z,28.90
2017-08-26T10:26:11.810Z,29.30
2017-08-26T10:28:42.015Z,29.70
2017-08-26T10:31:12.317Z,30.00
2017-08-26T10:33:43.072Z,30.00
2017-08-26T10:36:13.393Z,30.00
2017-08-26T10:38:43.913Z,29.40
2017-08-26T10:41:14.398Z,29.20
2017-08-26T10:43:45.703Z,29.90
2017-08-26T10:46:17.424Z,29.90
2017-08-26T10:48:47.794Z,30.70
2017-08-26T10:51:18.401Z,31.30
2017-08-26T10:53:48.687Z,31.50
2017-08-26T10:56:19.437Z,31.60
2017-08-26T10:58:49.796Z,31.70
2017-08-26T11:01:20.197Z,31.60
2017-08-26T11:03:50.854Z,31.30
2017-08-26T11:06:21.187Z,30.90
2017-08-26T11:08:51.512Z,31.10
2017-08-26T11:11:21.824Z,30.70
2017-08-26T11:13:52.432Z,30.60
2017-08-26T11:16:22.888Z,30.10
2017-08-26T11:18:53.065Z,29.50
2017-08-26T11:21:23.754Z,29.00
2017-08-26T11:23:54.171Z,28.50
2017-08-26T11:26:24.385Z,28.00
2017-08-26T11:28:54.874Z,28.00
2017-08-26T11:31:28.465Z,28.00
2017-08-26T11:33:59.811Z,28.00
2017-08-26T11:36:30.160Z,27.50
2017-08-26T11:39:00.461Z,27.80
2017-08-26T11:41:31.616Z,28.10
2017-08-26T11:44:01.969Z,28.00
2017-08-26T11:46:32.302Z,28.30
2017-08-26T11:49:02.668Z,28.40
2017-08-26T11:51:33.368Z,28.50
2017-08-26T11:54:03.761Z,28.50
2017-08-26T11:56:34.874Z,28.90
2017-08-26T11:59:05.572Z,28.90
2017-08-26T12:01:35.957Z,29.50
2017-08-26T12:04:07.275Z,29.60
2017-08-26T12:06:37.909Z,29.50
2017-08-26T12:09:09.122Z,29.00
2017-08-26T12:11:39.619Z,28.90
2017-08-26T12:14:10.964Z,28.90
2017-08-26T12:16:41.351Z,28.80
2017-08-26T12:19:11.782Z,28.90
2017-08-26T12:21:42.522Z,28.90
2017-08-26T12:24:16.737Z,28.80
2017-08-26T12:26:47.673Z,28.80
2017-08-26T12:29:18.124Z,28.60
2017-08-26T12:31:48.484Z,28.20
2017-08-26T12:34:19.226Z,27.30
2017-08-26T12:36:49.473Z,27.70
2017-08-26T12:39:19.862Z,27.60
2017-08-26T12:41:50.237Z,27.40
2017-08-26T12:44:22.868Z,27.60
2017-08-26T12:46:53.344Z,27.90
2017-08-26T12:49:23.677Z,28.50
2017-08-26T12:51:53.986Z,28.40
2017-08-26T12:54:24.353Z,28.70
2017-08-26T12:56:54.547Z,28.60
2017-08-26T12:59:24.772Z,28.40
2017-08-26T13:01:55.001Z,28.60
2017-08-26T13:04:25.154Z,28.00
2017-08-26T13:06:55.445Z,27.90
2017-08-26T13:09:26.170Z,27.30
2017-08-26T13:11:57.202Z,27.30
2017-08-26T13:14:27.472Z,27.30
2017-08-26T13:16:57.834Z,27.30
2017-08-26T13:19:28.991Z,27.20
2017-08-26T13:22:07.527Z,27.20
2017-08-26T13:24:37.849Z,27.40
2017-08-26T13:27:08.194Z,27.80
2017-08-26T13:29:38.518Z,28.10
2017-08-26T13:32:08.816Z,27.70
2017-08-26T13:34:43.453Z,27.60
2017-08-26T13:37:13.880Z,27.80
2017-08-26T13:39:44.112Z,28.00
2017-08-26T13:42:14.429Z,28.30
2017-08-26T13:44:45.158Z,28.30
2017-08-26T13:47:15.764Z,28.00
2017-08-26T13:49:46.494Z,28.10
2017-08-26T13:52:19.139Z,27.30
2017-08-26T13:54:49.505Z,27.40
2017-08-26T13:57:20.490Z,27.90
2017-08-26T13:59:50.934Z,27.90
2017-08-26T14:02:21.346Z,27.90
2017-08-26T14:04:52.089Z,27.30
2017-08-26T14:07:22.569Z,27.10
2017-08-26T14:09:52.918Z,27.30
2017-08-26T14:12:23.173Z,27.50
2017-08-26T14:14:53.542Z,27.70
2017-08-26T14:17:25.009Z,27.80
2017-08-26T14:19:55.417Z,27.70
2017-08-26T14:22:25.662Z,27.90
2017-08-26T14:24:55.969Z,27.70
2017-08-26T14:27:26.565Z,27.30
2017-08-26T14:29:56.894Z,26.80
2017-08-26T14:32:27.222Z,26.80
2017-08-26T14:34:57.828Z,26.80
2017-08-26T14:37:28.213Z,26.70
2017-08-26T14:39:58.669Z,26.00
2017-08-26T14:42:29.015Z,26.10
2017-08-26T14:44:59.223Z,26.40
2017-08-26T14:47:29.881Z,26.70
2017-08-26T14:50:00.526Z,26.80
2017-08-26T14:52:30.811Z,27.00
2017-08-26T14:55:01.136Z,27.00
2017-08-26T14:57:31.840Z,27.20
2017-08-26T15:00:02.610Z,27.30
2017-08-26T15:02:32.849Z,27.10
2017-08-26T15:05:03.861Z,27.10
2017-08-26T15:07:34.102Z,27.10
2017-08-26T15:10:04.386Z,27.00
2017-08-26T15:12:34.720Z,27.10
2017-08-26T15:15:07.214Z,27.20
2017-08-26T15:17:37.661Z,27.20
2017-08-26T15:20:07.940Z,27.20
2017-08-26T15:22:38.321Z,27.10
2017-08-26T15:25:09.437Z,27.00
2017-08-26T15:27:39.724Z,26.80
2017-08-26T15:30:10.116Z,26.70
2017-08-26T15:32:40.396Z,26.70
2017-08-26T15:35:12.036Z,26.60
2017-08-26T15:37:42.589Z,26.60
2017-08-26T15:40:12.945Z,26.60
2017-08-26T15:42:43.509Z,26.40
2017-08-26T15:45:14.567Z,26.40
2017-08-26T15:47:45.126Z,26.30
2017-08-26T15:50:15.445Z,26.40
2017-08-26T15:52:45.681Z,26.30
2017-08-26T15:55:16.022Z,26.30
2017-08-26T15:57:46.698Z,26.30
2017-08-26T16:00:17.537Z,26.20
2017-08-26T16:02:47.851Z,26.20
2017-08-26T16:05:19.212Z,26.20
2017-08-26T16:07:49.433Z,26.20
2017-08-26T16:10:19.778Z,26.20
2017-08-26T16:12:50.896Z,26.10
2017-08-26T16:15:22.294Z,26.00
2017-08-26T16:17:52.562Z,26.00
2017-08-26T16:20:22.860Z,25.80
2017-08-26T16:22:53.429Z,25.70
2017-08-26T16:25:24.558Z,25.40
2017-08-26T16:27:54.890Z,25.40
2017-08-26T16:30:25.282Z,25.50
2017-08-26T16:32:55.570Z,25.40
2017-08-26T16:35:26.289Z,25.40
2017-08-26T16:37:57.510Z,25.30
2017-08-26T16:40:27.922Z,25.30
2017-08-26T16:42:58.256Z,25.20
2017-08-26T16:45:28.471Z,25.20
2017-08-26T16:47:59.145Z,25.20
2017-08-26T16:50:30.414Z,25.20
2017-08-26T16:53:00.755Z,25.10
2017-08-26T16:55:31.369Z,25.10
2017-08-26T16:58:02.120Z,25.00
2017-08-26T17:00:32.396Z,25.10
2017-08-26T17:03:02.709Z,25.20
2017-08-26T17:05:35.333Z,25.30
2017-08-26T17:08:06.501Z,25.30
2017-08-26T17:10:36.871Z,25.20
2017-08-26T17:13:08.690Z,25.00
2017-08-26T17:15:41.077Z,25.00
2017-08-26T17:18:11.346Z,25.00
2017-08-26T17:20:42.819Z,25.00
2017-08-26T17:23:13.109Z,25.10
2017-08-26T17:25:43.361Z,25.10
2017-08-26T17:28:13.549Z,25.10
2017-08-26T17:30:43.920Z,25.00
2017-08-26T17:33:14.237Z,25.00
2017-08-26T17:35:44.765Z,24.80
2017-08-26T17:38:15.113Z,24.70
2017-08-26T17:40:45.398Z,24.70
2017-08-26T17:43:15.716Z,24.60
2017-08-26T17:45:54.780Z,24.50
2017-08-26T17:48:36.270Z,24.50
2017-08-26T17:51:06.568Z,24.40
2017-08-26T17:53:36.978Z,24.30
2017-08-26T17:56:07.433Z,24.30
2017-08-26T17:59:02.925Z,24.20
2017-08-26T18:01:37.726Z,24.20
2017-08-26T18:04:13.305Z,24.10
2017-08-26T18:06:43.777Z,23.80
2017-08-26T18:09:14.112Z,23.80
2017-08-26T18:11:44.509Z,23.70
2017-08-26T18:14:14.921Z,23.70
2017-08-26T18:16:45.508Z,23.70
2017-08-26T18:19:15.743Z,23.60
2017-08-26T18:21:45.939Z,23.50
2017-08-26T18:24:16.629Z,23.40
2017-08-26T18:26:46.938Z,23.30
2017-08-26T18:29:18.103Z,23.10
2017-08-26T18:31:48.252Z,23.00
2017-08-26T18:34:18.627Z,23.10
2017-08-26T18:36:50.055Z,22.90
2017-08-26T18:39:20.965Z,22.90
2017-08-26T18:41:51.337Z,22.80
2017-08-26T18:44:22.558Z,22.80
2017-08-26T18:46:52.959Z,22.80
2017-08-26T18:49:23.445Z,22.80
2017-08-26T18:51:53.799Z,22.70
2017-08-26T18:54:24.143Z,22.60
2017-08-26T18:56:54.574Z,22.50
2017-08-26T18:59:24.876Z,22.50
2017-08-26T19:01:55.045Z,22.40
2017-08-26T19:04:25.322Z,22.40
2017-08-26T19:07:03.451Z,22.30
2017-08-26T19:09:33.985Z,22.30
2017-08-26T19:12:04.834Z,22.30
2017-08-26T19:14:35.141Z,22.30
2017-08-26T19:17:06.428Z,22.30
2017-08-26T19:19:36.705Z,22.20
2017-08-26T19:22:06.921Z,22.20
2017-08-26T19:24:38.590Z,22.10
2017-08-26T19:27:08.796Z,22.10
2017-08-26T19:29:39.083Z,22.10
2017-08-26T19:32:09.303Z,22.10
2017-08-26T19:34:45.236Z,22.10
2017-08-26T19:37:18.491Z,21.90
2017-08-26T19:39:54.357Z,21.90
2017-08-26T19:42:27.894Z,21.90
2017-08-26T19:44:58.292Z,21.80
2017-08-26T19:47:28.470Z,21.70
2017-08-26T19:49:58.680Z,21.70
2017-08-26T19:52:29.058Z,21.70
2017-08-26T19:55:03.432Z,21.60
2017-08-26T19:57:33.780Z,21.60
2017-08-26T20:00:04.166Z,21.60
2017-08-26T20:02:34.547Z,21.70
2017-08-26T20:05:05.073Z,21.70
2017-08-26T20:07:35.374Z,21.70
2017-08-26T20:10:05.749Z,21.60
2017-08-26T20:12:44.470Z,21.60
2017-08-26T20:15:14.860Z,21.60
2017-08-26T20:17:45.310Z,21.60
2017-08-26T20:20:15.735Z,21.50
2017-08-26T20:22:46.168Z,21.40
2017-08-26T20:25:17.582Z,21.40
2017-08-26T20:27:47.853Z,21.30
2017-08-26T20:30:18.610Z,21.20
2017-08-26T20:32:49.023Z,21.20
2017-08-26T20:35:19.338Z,21.10
2017-08-26T20:37:49.625Z,21.10
2017-08-26T20:40:20.733Z,21.00
2017-08-26T20:42:52.034Z,20.90
2017-08-26T20:45:22.353Z,20.90
2017-08-26T20:47:52.700Z,20.90
2017-08-26T20:50:23.016Z,20.80
2017-08-26T20:52:54.062Z,20.70
2017-08-26T20:55:30.141Z,20.70
2017-08-26T20:58:00.743Z,20.60
2017-08-26T21:00:31.178Z,20.60
2017-08-26T21:03:01.641Z,20.60
2017-08-26T21:05:32.421Z,20.60
2017-08-26T21:08:02.858Z,20.60
2017-08-26T21:10:33.307Z,20.50
2017-08-26T21:13:04.278Z,20.20
2017-08-26T21:15:34.768Z,20.20
2017-08-26T21:18:05.000Z,20.00
2017-08-26T21:20:35.189Z,19.90
2017-08-26T21:23:05.624Z,19.90
2017-08-26T21:25:38.484Z,19.90
2017-08-26T21:28:08.817Z,20.00
2017-08-26T21:30:39.261Z,20.00
2017-08-26T21:33:09.966Z,20.00
2017-08-26T21:35:40.662Z,20.00
2017-08-26T21:38:10.901Z,20.00
2017-08-26T21:40:41.430Z,19.90
2017-08-26T21:43:13.292Z,20.00
2017-08-26T21:45:44.481Z,19.90
2017-08-26T21:48:14.835Z,19.90
2017-08-26T21:50:45.156Z,19.90
2017-08-26T21:53:15.637Z,19.80
2017-08-26T21:55:58.805Z,19.70
2017-08-26T21:58:29.132Z,19.60
2017-08-26T22:00:59.489Z,19.60
2017-08-26T22:03:30.034Z,19.50
2017-08-26T22:06:04.380Z,19.50
2017-08-26T22:08:34.925Z,19.60
2017-08-26T22:11:05.276Z,19.50
2017-08-26T22:13:36.940Z,19.50
2017-08-26T22:16:07.546Z,19.50
2017-08-26T22:18:37.978Z,19.40
2017-08-26T22:21:08.490Z,19.40
2017-08-26T22:23:38.959Z,19.40
2017-08-26T22:26:09.852Z,19.30
2017-08-26T22:28:40.487Z,19.30
2017-08-26T22:31:10.811Z,19.30
2017-08-26T22:33:41.141Z,19.30
2017-08-26T22:36:13.934Z,19.30
2017-08-26T22:38:44.507Z,19.30
2017-08-26T22:41:15.451Z,19.30
2017-08-26T22:43:46.353Z,19.30
2017-08-26T22:46:16.521Z,19.30
2017-08-26T22:48:46.892Z,19.30
2017-08-26T22:51:17.020Z,19.30
2017-08-26T22:53:47.256Z,19.20
2017-08-26T22:56:25.124Z,19.20
2017-08-26T22:58:55.453Z,19.10
2017-08-26T23:01:25.837Z,19.10
2017-08-26T23:03:56.151Z,19.10
2017-08-26T23:06:29.425Z,19.10
2017-08-26T23:08:59.742Z,19.10
2017-08-26T23:11:30.094Z,19.00
2017-08-26T23:14:00.812Z,19.00
2017-08-26T23:16:31.013Z,19.00
2017-08-26T23:19:01.176Z,19.00
2017-08-26T23:21:31.547Z,19.00
2017-08-26T23:24:02.045Z,19.00
2017-08-26T23:26:32.439Z,19.00
2017-08-26T23:29:03.022Z,19.00
2017-08-26T23:31:34.458Z,18.90
2017-08-26T23:34:04.767Z,19.00
2017-08-26T23:36:34.927Z,18.90
2017-08-26T23:39:05.582Z,18.90
2017-08-26T23:41:35.893Z,18.90
2017-08-26T23:44:10.258Z,18.80
2017-08-26T23:46:40.452Z,18.80
2017-08-26T23:49:11.408Z,18.80
2017-08-26T23:51:41.709Z,18.80
2017-08-26T23:54:11.828Z,18.70
2017-08-26T23:56:44.360Z,18.70
2017-08-26T23:59:14.475Z,18.60
